sensor_id;sensor_type;location;lat;lon;timestamp;P1;durP1;ratioP1;P2;durP2;ratioP2
60588;SDS011;46421;48.610;9.334;2024-02-21T00:00:14;6.60;;;2.20;;
60588;SDS011;46421;48.610;9.334;2024-02-21T00:02:40;9.10;;;2.72;;
60588;SDS011;46421;48.610;9.334;2024-02-21T00:05:06;7.43;;;2.87;;
60588;SDS011;46421;48.610;9.334;2024-02-21T00:07:32;9.95;;;3.10;;
60588;SDS011;46421;48.610;9.334;2024-02-21T00:09:57;8.65;;;2.53;;
60588;SDS011;46421;48.610;9.334;2024-02-21T00:12:23;4.97;;;1.97;;
60588;SDS011;46421;48.610;9.334;2024-02-21T00:14:48;6.93;;;2.80;;
60588;SDS011;46421;48.610;9.334;2024-02-21T00:17:13;5.77;;;2.60;;
60588;SDS011;46421;48.610;9.334;2024-02-21T00:19:39;6.25;;;2.65;;
60588;SDS011;46421;48.610;9.334;2024-02-21T00:22:04;7.78;;;2.92;;
60588;SDS011;46421;48.610;9.334;2024-02-21T00:24:30;7.38;;;2.58;;
60588;SDS011;46421;48.610;9.334;2024-02-21T00:26:55;10.85;;;3.08;;
60588;SDS011;46421;48.610;9.334;2024-02-21T00:29:20;7.57;;;2.70;;
60588;SDS011;46421;48.610;9.334;2024-02-21T00:31:47;7.73;;;2.93;;
60588;SDS011;46421;48.610;9.334;2024-02-21T00:34:13;8.13;;;2.72;;
60588;SDS011;46421;48.610;9.334;2024-02-21T00:36:38;6.65;;;2.53;;
60588;SDS011;46421;48.610;9.334;2024-02-21T00:39:03;9.18;;;3.15;;
60588;SDS011;46421;48.610;9.334;2024-02-21T00:41:29;6.65;;;2.83;;
60588;SDS011;46421;48.610;9.334;2024-02-21T00:43:54;9.75;;;2.92;;
60588;SDS011;46421;48.610;9.334;2024-02-21T00:46:20;6.32;;;2.72;;
60588;SDS011;46421;48.610;9.334;2024-02-21T00:48:45;8.27;;;2.30;;
60588;SDS011;46421;48.610;9.334;2024-02-21T00:51:11;5.93;;;2.72;;
60588;SDS011;46421;48.610;9.334;2024-02-21T00:53:36;7.40;;;2.43;;
60588;SDS011;46421;48.610;9.334;2024-02-21T00:56:04;8.07;;;2.75;;
60588;SDS011;46421;48.610;9.334;2024-02-21T00:58:30;8.00;;;2.60;;
60588;SDS011;46421;48.610;9.334;2024-02-21T01:00:55;6.55;;;2.90;;
60588;SDS011;46421;48.610;9.334;2024-02-21T01:03:21;7.73;;;2.33;;
60588;SDS011;46421;48.610;9.334;2024-02-21T01:05:46;7.67;;;1.97;;
60588;SDS011;46421;48.610;9.334;2024-02-21T01:08:11;5.70;;;2.15;;
60588;SDS011;46421;48.610;9.334;2024-02-21T01:10:37;8.50;;;2.37;;
60588;SDS011;46421;48.610;9.334;2024-02-21T01:13:02;7.90;;;2.60;;
60588;SDS011;46421;48.610;9.334;2024-02-21T01:15:28;7.50;;;2.67;;
60588;SDS011;46421;48.610;9.334;2024-02-21T01:17:53;11.90;;;3.03;;
60588;SDS011;46421;48.610;9.334;2024-02-21T01:20:20;5.90;;;2.28;;
60588;SDS011;46421;48.610;9.334;2024-02-21T01:22:46;9.55;;;2.20;;
60588;SDS011;46421;48.610;9.334;2024-02-21T01:25:11;6.57;;;2.30;;
60588;SDS011;46421;48.610;9.334;2024-02-21T01:27:36;10.10;;;2.77;;
60588;SDS011;46421;48.610;9.334;2024-02-21T01:30:02;8.23;;;2.33;;
60588;SDS011;46421;48.610;9.334;2024-02-21T01:32:27;5.93;;;2.55;;
60588;SDS011;46421;48.610;9.334;2024-02-21T01:34:52;8.55;;;2.85;;
60588;SDS011;46421;48.610;9.334;2024-02-21T01:37:18;5.70;;;1.95;;
60588;SDS011;46421;48.610;9.334;2024-02-21T01:39:43;5.37;;;2.20;;
60588;SDS011;46421;48.610;9.334;2024-02-21T01:42:09;5.13;;;2.13;;
60588;SDS011;46421;48.610;9.334;2024-02-21T01:44:34;6.97;;;1.92;;
60588;SDS011;46421;48.610;9.334;2024-02-21T01:46:59;5.07;;;1.85;;
60588;SDS011;46421;48.610;9.334;2024-02-21T01:49:25;6.97;;;1.98;;
60588;SDS011;46421;48.610;9.334;2024-02-21T01:51:50;4.07;;;1.70;;
60588;SDS011;46421;48.610;9.334;2024-02-21T01:54:16;10.48;;;2.53;;
60588;SDS011;46421;48.610;9.334;2024-02-21T01:56:42;5.40;;;1.55;;
60588;SDS011;46421;48.610;9.334;2024-02-21T01:59:08;7.28;;;2.20;;
60588;SDS011;46421;48.610;9.334;2024-02-21T02:01:33;4.50;;;1.77;;
60588;SDS011;46421;48.610;9.334;2024-02-21T02:03:59;5.78;;;1.98;;
60588;SDS011;46421;48.610;9.334;2024-02-21T02:06:24;5.95;;;2.10;;
60588;SDS011;46421;48.610;9.334;2024-02-21T02:08:50;9.77;;;2.50;;
60588;SDS011;46421;48.610;9.334;2024-02-21T02:11:15;8.77;;;2.30;;
60588;SDS011;46421;48.610;9.334;2024-02-21T02:13:41;7.30;;;2.08;;
60588;SDS011;46421;48.610;9.334;2024-02-21T02:16:06;6.57;;;2.13;;
60588;SDS011;46421;48.610;9.334;2024-02-21T02:18:31;6.43;;;2.30;;
60588;SDS011;46421;48.610;9.334;2024-02-21T02:20:57;7.80;;;2.37;;
60588;SDS011;46421;48.610;9.334;2024-02-21T02:23:24;4.80;;;2.13;;
60588;SDS011;46421;48.610;9.334;2024-02-21T02:25:52;6.88;;;2.38;;
60588;SDS011;46421;48.610;9.334;2024-02-21T02:28:18;5.82;;;2.00;;
60588;SDS011;46421;48.610;9.334;2024-02-21T02:30:44;7.22;;;2.47;;
60588;SDS011;46421;48.610;9.334;2024-02-21T02:33:09;6.38;;;2.40;;
60588;SDS011;46421;48.610;9.334;2024-02-21T02:35:35;7.40;;;2.13;;
60588;SDS011;46421;48.610;9.334;2024-02-21T02:38:01;8.50;;;2.47;;
60588;SDS011;46421;48.610;9.334;2024-02-21T02:40:27;6.65;;;2.30;;
60588;SDS011;46421;48.610;9.334;2024-02-21T02:42:52;7.27;;;2.20;;
60588;SDS011;46421;48.610;9.334;2024-02-21T02:45:20;6.07;;;2.10;;
60588;SDS011;46421;48.610;9.334;2024-02-21T02:47:46;6.15;;;2.13;;
60588;SDS011;46421;48.610;9.334;2024-02-21T02:50:11;8.27;;;2.30;;
60588;SDS011;46421;48.610;9.334;2024-02-21T02:52:37;6.47;;;2.40;;
60588;SDS011;46421;48.610;9.334;2024-02-21T02:55:03;4.88;;;2.00;;
60588;SDS011;46421;48.610;9.334;2024-02-21T02:57:29;6.65;;;2.25;;
60588;SDS011;46421;48.610;9.334;2024-02-21T02:59:54;9.05;;;2.63;;
60588;SDS011;46421;48.610;9.334;2024-02-21T03:02:20;7.57;;;2.47;;
60588;SDS011;46421;48.610;9.334;2024-02-21T03:04:45;6.30;;;2.22;;
60588;SDS011;46421;48.610;9.334;2024-02-21T03:07:11;8.20;;;2.50;;
60588;SDS011;46421;48.610;9.334;2024-02-21T03:09:39;5.72;;;2.25;;
60588;SDS011;46421;48.610;9.334;2024-02-21T03:12:05;5.30;;;2.17;;
60588;SDS011;46421;48.610;9.334;2024-02-21T03:14:31;6.88;;;2.45;;
60588;SDS011;46421;48.610;9.334;2024-02-21T03:16:57;7.75;;;3.00;;
60588;SDS011;46421;48.610;9.334;2024-02-21T03:19:23;7.55;;;2.53;;
60588;SDS011;46421;48.610;9.334;2024-02-21T03:21:48;5.05;;;2.30;;
60588;SDS011;46421;48.610;9.334;2024-02-21T03:24:17;10.50;;;3.05;;
60588;SDS011;46421;48.610;9.334;2024-02-21T03:26:43;8.57;;;2.67;;
60588;SDS011;46421;48.610;9.334;2024-02-21T03:29:08;10.90;;;2.92;;
60588;SDS011;46421;48.610;9.334;2024-02-21T03:31:34;6.88;;;2.55;;
60588;SDS011;46421;48.610;9.334;2024-02-21T03:34:12;5.88;;;2.40;;
60588;SDS011;46421;48.610;9.334;2024-02-21T03:36:37;7.38;;;2.58;;
60588;SDS011;46421;48.610;9.334;2024-02-21T03:39:03;7.38;;;2.35;;
60588;SDS011;46421;48.610;9.334;2024-02-21T03:41:29;8.15;;;2.63;;
60588;SDS011;46421;48.610;9.334;2024-02-21T03:43:54;7.30;;;2.05;;
60588;SDS011;46421;48.610;9.334;2024-02-21T03:46:20;8.93;;;2.53;;
60588;SDS011;46421;48.610;9.334;2024-02-21T03:48:45;6.57;;;2.40;;
60588;SDS011;46421;48.610;9.334;2024-02-21T03:51:11;7.15;;;2.30;;
60588;SDS011;46421;48.610;9.334;2024-02-21T03:53:36;6.50;;;2.42;;
60588;SDS011;46421;48.610;9.334;2024-02-21T03:56:02;6.82;;;2.53;;
60588;SDS011;46421;48.610;9.334;2024-02-21T03:58:29;6.53;;;2.30;;
60588;SDS011;46421;48.610;9.334;2024-02-21T04:00:59;5.47;;;2.28;;
60588;SDS011;46421;48.610;9.334;2024-02-21T04:03:26;6.43;;;2.25;;
60588;SDS011;46421;48.610;9.334;2024-02-21T04:05:51;6.47;;;2.75;;
60588;SDS011;46421;48.610;9.334;2024-02-21T04:08:16;8.47;;;3.17;;
60588;SDS011;46421;48.610;9.334;2024-02-21T04:10:42;6.72;;;2.78;;
60588;SDS011;46421;48.610;9.334;2024-02-21T04:13:07;7.38;;;2.40;;
60588;SDS011;46421;48.610;9.334;2024-02-21T04:15:32;7.60;;;2.50;;
60588;SDS011;46421;48.610;9.334;2024-02-21T04:17:58;5.75;;;2.55;;
60588;SDS011;46421;48.610;9.334;2024-02-21T04:20:23;7.22;;;2.40;;
60588;SDS011;46421;48.610;9.334;2024-02-21T04:22:49;6.60;;;2.03;;
60588;SDS011;46421;48.610;9.334;2024-02-21T04:25:14;5.45;;;2.55;;
60588;SDS011;46421;48.610;9.334;2024-02-21T04:27:39;5.45;;;2.50;;
60588;SDS011;46421;48.610;9.334;2024-02-21T04:30:05;10.07;;;2.63;;
60588;SDS011;46421;48.610;9.334;2024-02-21T04:32:32;5.35;;;1.92;;
60588;SDS011;46421;48.610;9.334;2024-02-21T04:34:57;6.45;;;2.40;;
60588;SDS011;46421;48.610;9.334;2024-02-21T04:37:23;7.15;;;2.15;;
60588;SDS011;46421;48.610;9.334;2024-02-21T04:39:48;8.63;;;2.28;;
60588;SDS011;46421;48.610;9.334;2024-02-21T04:42:14;4.63;;;1.75;;
60588;SDS011;46421;48.610;9.334;2024-02-21T04:44:40;5.00;;;2.00;;
60588;SDS011;46421;48.610;9.334;2024-02-21T04:47:05;7.72;;;2.35;;
60588;SDS011;46421;48.610;9.334;2024-02-21T04:49:30;6.88;;;1.95;;
60588;SDS011;46421;48.610;9.334;2024-02-21T04:51:56;5.70;;;2.37;;
60588;SDS011;46421;48.610;9.334;2024-02-21T04:54:21;5.23;;;1.90;;
60588;SDS011;46421;48.610;9.334;2024-02-21T04:56:46;5.32;;;2.28;;
60588;SDS011;46421;48.610;9.334;2024-02-21T04:59:12;6.13;;;1.70;;
60588;SDS011;46421;48.610;9.334;2024-02-21T05:01:37;5.47;;;1.70;;
60588;SDS011;46421;48.610;9.334;2024-02-21T05:04:03;4.32;;;1.52;;
60588;SDS011;46421;48.610;9.334;2024-02-21T05:06:28;5.28;;;1.60;;
60588;SDS011;46421;48.610;9.334;2024-02-21T05:08:54;5.20;;;1.85;;
60588;SDS011;46421;48.610;9.334;2024-02-21T05:11:21;5.07;;;1.85;;
60588;SDS011;46421;48.610;9.334;2024-02-21T05:13:46;5.85;;;2.15;;
60588;SDS011;46421;48.610;9.334;2024-02-21T05:16:14;6.15;;;1.85;;
60588;SDS011;46421;48.610;9.334;2024-02-21T05:18:40;4.50;;;1.80;;
60588;SDS011;46421;48.610;9.334;2024-02-21T05:21:07;4.75;;;1.80;;
60588;SDS011;46421;48.610;9.334;2024-02-21T05:23:33;5.57;;;2.13;;
60588;SDS011;46421;48.610;9.334;2024-02-21T05:25:58;6.40;;;2.10;;
60588;SDS011;46421;48.610;9.334;2024-02-21T05:28:23;6.53;;;1.90;;
60588;SDS011;46421;48.610;9.334;2024-02-21T05:30:49;7.20;;;1.93;;
60588;SDS011;46421;48.610;9.334;2024-02-21T05:33:14;5.47;;;2.03;;
60588;SDS011;46421;48.610;9.334;2024-02-21T05:35:46;6.10;;;1.70;;
60588;SDS011;46421;48.610;9.334;2024-02-21T05:38:12;4.72;;;2.05;;
60588;SDS011;46421;48.610;9.334;2024-02-21T05:40:37;4.77;;;1.70;;
60588;SDS011;46421;48.610;9.334;2024-02-21T05:43:03;5.28;;;1.80;;
60588;SDS011;46421;48.610;9.334;2024-02-21T05:45:28;6.78;;;1.83;;
60588;SDS011;46421;48.610;9.334;2024-02-21T05:47:54;5.95;;;1.85;;
60588;SDS011;46421;48.610;9.334;2024-02-21T05:50:19;6.50;;;2.40;;
60588;SDS011;46421;48.610;9.334;2024-02-21T05:52:46;6.13;;;2.08;;
60588;SDS011;46421;48.610;9.334;2024-02-21T05:55:12;8.02;;;2.10;;
60588;SDS011;46421;48.610;9.334;2024-02-21T05:57:37;5.85;;;1.73;;
60588;SDS011;46421;48.610;9.334;2024-02-21T06:00:03;9.45;;;2.15;;
60588;SDS011;46421;48.610;9.334;2024-02-21T06:02:30;10.05;;;2.15;;
60588;SDS011;46421;48.610;9.334;2024-02-21T06:04:55;7.23;;;1.83;;
60588;SDS011;46421;48.610;9.334;2024-02-21T06:07:21;6.60;;;1.90;;
60588;SDS011;46421;48.610;9.334;2024-02-21T06:09:46;5.30;;;1.67;;
60588;SDS011;46421;48.610;9.334;2024-02-21T06:12:11;5.15;;;1.92;;
60588;SDS011;46421;48.610;9.334;2024-02-21T06:14:37;7.75;;;2.03;;
60588;SDS011;46421;48.610;9.334;2024-02-21T06:17:02;6.97;;;2.20;;
60588;SDS011;46421;48.610;9.334;2024-02-21T06:19:28;4.22;;;1.60;;
60588;SDS011;46421;48.610;9.334;2024-02-21T06:21:53;5.13;;;1.67;;
60588;SDS011;46421;48.610;9.334;2024-02-21T06:24:18;7.28;;;2.35;;
60588;SDS011;46421;48.610;9.334;2024-02-21T06:26:44;6.68;;;1.70;;
60588;SDS011;46421;48.610;9.334;2024-02-21T06:29:10;3.90;;;1.35;;
60588;SDS011;46421;48.610;9.334;2024-02-21T06:31:36;5.97;;;1.65;;
60588;SDS011;46421;48.610;9.334;2024-02-21T06:34:01;6.30;;;2.23;;
60588;SDS011;46421;48.610;9.334;2024-02-21T06:36:27;5.88;;;2.13;;
60588;SDS011;46421;48.610;9.334;2024-02-21T06:38:52;9.20;;;1.83;;
60588;SDS011;46421;48.610;9.334;2024-02-21T06:41:18;5.33;;;1.53;;
60588;SDS011;46421;48.610;9.334;2024-02-21T06:43:44;3.22;;;1.42;;
60588;SDS011;46421;48.610;9.334;2024-02-21T06:46:11;5.75;;;1.92;;
60588;SDS011;46421;48.610;9.334;2024-02-21T06:48:36;5.85;;;1.83;;
60588;SDS011;46421;48.610;9.334;2024-02-21T06:51:01;5.50;;;1.87;;
60588;SDS011;46421;48.610;9.334;2024-02-21T06:53:28;6.85;;;2.03;;
60588;SDS011;46421;48.610;9.334;2024-02-21T06:55:53;3.80;;;1.60;;
60588;SDS011;46421;48.610;9.334;2024-02-21T06:58:19;9.55;;;2.42;;
60588;SDS011;46421;48.610;9.334;2024-02-21T07:00:44;4.13;;;1.70;;
60588;SDS011;46421;48.610;9.334;2024-02-21T07:03:09;5.85;;;1.88;;
60588;SDS011;46421;48.610;9.334;2024-02-21T07:05:35;5.17;;;1.60;;
60588;SDS011;46421;48.610;9.334;2024-02-21T07:08:00;5.32;;;1.92;;
60588;SDS011;46421;48.610;9.334;2024-02-21T07:10:26;6.53;;;1.70;;
60588;SDS011;46421;48.610;9.334;2024-02-21T07:12:53;3.95;;;1.70;;
60588;SDS011;46421;48.610;9.334;2024-02-21T07:15:18;4.10;;;1.75;;
60588;SDS011;46421;48.610;9.334;2024-02-21T07:17:43;4.15;;;1.58;;
60588;SDS011;46421;48.610;9.334;2024-02-21T07:20:09;4.80;;;1.57;;
60588;SDS011;46421;48.610;9.334;2024-02-21T07:22:34;6.57;;;1.90;;
60588;SDS011;46421;48.610;9.334;2024-02-21T07:25:00;3.30;;;1.50;;
60588;SDS011;46421;48.610;9.334;2024-02-21T07:27:25;5.15;;;1.40;;
60588;SDS011;46421;48.610;9.334;2024-02-21T07:29:53;4.88;;;1.52;;
60588;SDS011;46421;48.610;9.334;2024-02-21T07:32:19;9.48;;;1.80;;
60588;SDS011;46421;48.610;9.334;2024-02-21T07:34:44;4.63;;;1.52;;
60588;SDS011;46421;48.610;9.334;2024-02-21T07:37:09;4.75;;;1.60;;
60588;SDS011;46421;48.610;9.334;2024-02-21T07:39:35;5.90;;;1.70;;
60588;SDS011;46421;48.610;9.334;2024-02-21T07:42:02;5.88;;;1.90;;
60588;SDS011;46421;48.610;9.334;2024-02-21T07:44:28;6.97;;;1.60;;
60588;SDS011;46421;48.610;9.334;2024-02-21T07:46:53;5.45;;;1.50;;
60588;SDS011;46421;48.610;9.334;2024-02-21T07:49:18;5.45;;;1.50;;
60588;SDS011;46421;48.610;9.334;2024-02-21T07:51:44;6.63;;;2.17;;
60588;SDS011;46421;48.610;9.334;2024-02-21T07:54:09;7.43;;;1.85;;
60588;SDS011;46421;48.610;9.334;2024-02-21T07:56:35;4.80;;;1.90;;
60588;SDS011;46421;48.610;9.334;2024-02-21T07:59:00;7.57;;;2.35;;
60588;SDS011;46421;48.610;9.334;2024-02-21T08:01:25;5.07;;;1.83;;
60588;SDS011;46421;48.610;9.334;2024-02-21T08:03:51;5.47;;;2.03;;
60588;SDS011;46421;48.610;9.334;2024-02-21T08:06:16;7.65;;;1.88;;
60588;SDS011;46421;48.610;9.334;2024-02-21T08:08:42;7.20;;;1.85;;
60588;SDS011;46421;48.610;9.334;2024-02-21T08:11:07;5.43;;;2.15;;
60588;SDS011;46421;48.610;9.334;2024-02-21T08:13:32;5.03;;;1.63;;
60588;SDS011;46421;48.610;9.334;2024-02-21T08:15:58;6.25;;;1.90;;
60588;SDS011;46421;48.610;9.334;2024-02-21T08:18:23;6.50;;;1.80;;
60588;SDS011;46421;48.610;9.334;2024-02-21T08:20:48;4.78;;;1.80;;
60588;SDS011;46421;48.610;9.334;2024-02-21T08:23:17;6.07;;;1.90;;
60588;SDS011;46421;48.610;9.334;2024-02-21T08:25:43;4.72;;;2.08;;
60588;SDS011;46421;48.610;9.334;2024-02-21T08:28:09;3.72;;;1.75;;
60588;SDS011;46421;48.610;9.334;2024-02-21T08:30:34;9.43;;;2.20;;
60588;SDS011;46421;48.610;9.334;2024-02-21T08:32:59;4.65;;;2.03;;
60588;SDS011;46421;48.610;9.334;2024-02-21T08:35:26;5.00;;;1.88;;
60588;SDS011;46421;48.610;9.334;2024-02-21T08:37:51;5.13;;;1.73;;
60588;SDS011;46421;48.610;9.334;2024-02-21T08:40:16;5.22;;;1.77;;
60588;SDS011;46421;48.610;9.334;2024-02-21T08:42:46;4.57;;;1.80;;
60588;SDS011;46421;48.610;9.334;2024-02-21T08:45:12;6.18;;;1.92;;
60588;SDS011;46421;48.610;9.334;2024-02-21T08:47:40;8.98;;;2.40;;
60588;SDS011;46421;48.610;9.334;2024-02-21T08:50:06;6.15;;;2.58;;
60588;SDS011;46421;48.610;9.334;2024-02-21T08:52:32;4.60;;;1.52;;
60588;SDS011;46421;48.610;9.334;2024-02-21T08:54:57;7.10;;;1.98;;
60588;SDS011;46421;48.610;9.334;2024-02-21T08:57:22;5.95;;;1.90;;
60588;SDS011;46421;48.610;9.334;2024-02-21T08:59:48;6.03;;;2.30;;
60588;SDS011;46421;48.610;9.334;2024-02-21T09:02:13;5.30;;;1.90;;
60588;SDS011;46421;48.610;9.334;2024-02-21T09:04:41;6.97;;;2.08;;
60588;SDS011;46421;48.610;9.334;2024-02-21T09:07:06;4.88;;;1.48;;
60588;SDS011;46421;48.610;9.334;2024-02-21T09:09:32;4.25;;;1.67;;
60588;SDS011;46421;48.610;9.334;2024-02-21T09:11:58;7.75;;;2.13;;
60588;SDS011;46421;48.610;9.334;2024-02-21T09:14:30;5.72;;;2.20;;
60588;SDS011;46421;48.610;9.334;2024-02-21T09:16:56;4.85;;;1.88;;
60588;SDS011;46421;48.610;9.334;2024-02-21T09:19:21;6.07;;;2.05;;
60588;SDS011;46421;48.610;9.334;2024-02-21T09:21:47;6.72;;;2.22;;
60588;SDS011;46421;48.610;9.334;2024-02-21T09:24:12;4.10;;;1.80;;
60588;SDS011;46421;48.610;9.334;2024-02-21T09:26:38;6.93;;;1.90;;
60588;SDS011;46421;48.610;9.334;2024-02-21T09:29:04;6.75;;;2.28;;
60588;SDS011;46421;48.610;9.334;2024-02-21T09:31:29;7.07;;;2.00;;
60588;SDS011;46421;48.610;9.334;2024-02-21T09:33:54;5.78;;;1.95;;
60588;SDS011;46421;48.610;9.334;2024-02-21T09:36:20;4.72;;;1.70;;
60588;SDS011;46421;48.610;9.334;2024-02-21T09:38:46;5.65;;;2.22;;
60588;SDS011;46421;48.610;9.334;2024-02-21T09:41:15;7.85;;;2.00;;
60588;SDS011;46421;48.610;9.334;2024-02-21T09:43:45;7.60;;;2.33;;
60588;SDS011;46421;48.610;9.334;2024-02-21T09:46:15;6.22;;;2.33;;
60588;SDS011;46421;48.610;9.334;2024-02-21T09:48:51;6.13;;;2.42;;
60588;SDS011;46421;48.610;9.334;2024-02-21T09:51:21;7.60;;;2.17;;
60588;SDS011;46421;48.610;9.334;2024-02-21T09:53:46;6.15;;;2.15;;
60588;SDS011;46421;48.610;9.334;2024-02-21T09:56:12;7.85;;;2.40;;
60588;SDS011;46421;48.610;9.334;2024-02-21T09:58:38;7.47;;;2.00;;
60588;SDS011;46421;48.610;9.334;2024-02-21T10:01:04;6.43;;;2.10;;
60588;SDS011;46421;48.610;9.334;2024-02-21T10:03:32;6.25;;;2.67;;
60588;SDS011;46421;48.610;9.334;2024-02-21T10:06:00;5.55;;;2.05;;
60588;SDS011;46421;48.610;9.334;2024-02-21T10:08:26;4.15;;;1.80;;
60588;SDS011;46421;48.610;9.334;2024-02-21T10:10:51;5.53;;;2.00;;
60588;SDS011;46421;48.610;9.334;2024-02-21T10:13:27;6.05;;;1.90;;
60588;SDS011;46421;48.610;9.334;2024-02-21T10:16:03;6.30;;;2.08;;
60588;SDS011;46421;48.610;9.334;2024-02-21T10:18:29;7.45;;;2.03;;
60588;SDS011;46421;48.610;9.334;2024-02-21T10:21:04;4.90;;;1.75;;
60588;SDS011;46421;48.610;9.334;2024-02-21T10:26:13;4.55;;;1.67;;
60588;SDS011;46421;48.610;9.334;2024-02-21T10:28:39;5.45;;;1.80;;
60588;SDS011;46421;48.610;9.334;2024-02-21T10:31:10;5.90;;;1.95;;
60588;SDS011;46421;48.610;9.334;2024-02-21T10:36:08;3.65;;;1.35;;
60588;SDS011;46421;48.610;9.334;2024-02-21T10:38:37;4.68;;;1.35;;
60588;SDS011;46421;48.610;9.334;2024-02-21T10:41:04;5.82;;;1.27;;
60588;SDS011;46421;48.610;9.334;2024-02-21T10:43:30;5.18;;;1.35;;
60588;SDS011;46421;48.610;9.334;2024-02-21T10:46:02;4.68;;;1.60;;
60588;SDS011;46421;48.610;9.334;2024-02-21T10:50:56;6.25;;;1.33;;
60588;SDS011;46421;48.610;9.334;2024-02-21T10:53:40;6.68;;;1.30;;
60588;SDS011;46421;48.610;9.334;2024-02-21T10:58:59;5.50;;;1.35;;
60588;SDS011;46421;48.610;9.334;2024-02-21T11:01:25;7.00;;;1.42;;
60588;SDS011;46421;48.610;9.334;2024-02-21T11:03:54;6.18;;;1.58;;
60588;SDS011;46421;48.610;9.334;2024-02-21T11:08:46;4.35;;;1.50;;
60588;SDS011;46421;48.610;9.334;2024-02-21T11:13:42;3.28;;;1.23;;
60588;SDS011;46421;48.610;9.334;2024-02-21T11:18:34;5.45;;;1.10;;
60588;SDS011;46421;48.610;9.334;2024-02-21T11:21:00;3.65;;;1.15;;
60588;SDS011;46421;48.610;9.334;2024-02-21T11:23:26;3.40;;;1.17;;
60588;SDS011;46421;48.610;9.334;2024-02-21T11:25:52;4.32;;;1.30;;
60588;SDS011;46421;48.610;9.334;2024-02-21T11:28:24;4.63;;;1.67;;
60588;SDS011;46421;48.610;9.334;2024-02-21T11:30:50;4.90;;;1.60;;
60588;SDS011;46421;48.610;9.334;2024-02-21T11:33:16;4.50;;;1.30;;
60588;SDS011;46421;48.610;9.334;2024-02-21T11:35:41;5.50;;;1.55;;
60588;SDS011;46421;48.610;9.334;2024-02-21T11:38:10;4.68;;;1.55;;
60588;SDS011;46421;48.610;9.334;2024-02-21T11:40:44;7.50;;;1.40;;
60588;SDS011;46421;48.610;9.334;2024-02-21T11:43:11;3.35;;;1.25;;
60588;SDS011;46421;48.610;9.334;2024-02-21T11:45:36;3.25;;;1.20;;
60588;SDS011;46421;48.610;9.334;2024-02-21T11:48:03;5.72;;;1.40;;
60588;SDS011;46421;48.610;9.334;2024-02-21T11:50:30;3.03;;;1.20;;
60588;SDS011;46421;48.610;9.334;2024-02-21T11:52:56;4.47;;;1.23;;
60588;SDS011;46421;48.610;9.334;2024-02-21T11:55:22;6.25;;;1.85;;
60588;SDS011;46421;48.610;9.334;2024-02-21T11:57:47;3.70;;;1.13;;
60588;SDS011;46421;48.610;9.334;2024-02-21T12:00:13;7.50;;;1.48;;
60588;SDS011;46421;48.610;9.334;2024-02-21T12:02:45;3.20;;;1.20;;
60588;SDS011;46421;48.610;9.334;2024-02-21T12:05:11;3.95;;;1.02;;
60588;SDS011;46421;48.610;9.334;2024-02-21T12:07:36;4.05;;;1.10;;
60588;SDS011;46421;48.610;9.334;2024-02-21T12:10:07;5.85;;;1.40;;
60588;SDS011;46421;48.610;9.334;2024-02-21T12:12:35;4.95;;;1.52;;
60588;SDS011;46421;48.610;9.334;2024-02-21T12:15:02;4.80;;;1.30;;
60588;SDS011;46421;48.610;9.334;2024-02-21T12:17:29;5.22;;;1.63;;
60588;SDS011;46421;48.610;9.334;2024-02-21T12:19:55;3.95;;;1.65;;
60588;SDS011;46421;48.610;9.334;2024-02-21T12:22:21;4.03;;;1.23;;
60588;SDS011;46421;48.610;9.334;2024-02-21T12:24:47;4.40;;;1.20;;
60588;SDS011;46421;48.610;9.334;2024-02-21T12:27:13;6.10;;;1.40;;
60588;SDS011;46421;48.610;9.334;2024-02-21T12:29:38;4.28;;;1.48;;
60588;SDS011;46421;48.610;9.334;2024-02-21T12:32:04;8.10;;;2.00;;
60588;SDS011;46421;48.610;9.334;2024-02-21T12:34:29;5.13;;;1.67;;
60588;SDS011;46421;48.610;9.334;2024-02-21T12:36:58;4.20;;;1.77;;
60588;SDS011;46421;48.610;9.334;2024-02-21T12:39:23;3.95;;;1.35;;
60588;SDS011;46421;48.610;9.334;2024-02-21T12:41:48;4.57;;;1.40;;
60588;SDS011;46421;48.610;9.334;2024-02-21T12:44:14;3.95;;;1.30;;
60588;SDS011;46421;48.610;9.334;2024-02-21T12:46:41;3.63;;;1.38;;
60588;SDS011;46421;48.610;9.334;2024-02-21T12:49:06;6.75;;;1.35;;
60588;SDS011;46421;48.610;9.334;2024-02-21T12:51:35;4.78;;;1.50;;
60588;SDS011;46421;48.610;9.334;2024-02-21T12:54:00;3.95;;;1.38;;
60588;SDS011;46421;48.610;9.334;2024-02-21T12:56:26;3.20;;;1.20;;
60588;SDS011;46421;48.610;9.334;2024-02-21T12:58:52;4.43;;;1.33;;
60588;SDS011;46421;48.610;9.334;2024-02-21T13:01:18;4.18;;;1.45;;
60588;SDS011;46421;48.610;9.334;2024-02-21T13:03:44;5.53;;;1.60;;
60588;SDS011;46421;48.610;9.334;2024-02-21T13:06:09;5.93;;;2.05;;
60588;SDS011;46421;48.610;9.334;2024-02-21T13:08:38;3.75;;;1.30;;
60588;SDS011;46421;48.610;9.334;2024-02-21T13:11:05;4.43;;;1.20;;
60588;SDS011;46421;48.610;9.334;2024-02-21T13:13:30;6.47;;;1.30;;
60588;SDS011;46421;48.610;9.334;2024-02-21T13:15:57;3.67;;;1.05;;
60588;SDS011;46421;48.610;9.334;2024-02-21T13:18:25;3.75;;;1.08;;
60588;SDS011;46421;48.610;9.334;2024-02-21T13:20:50;3.03;;;1.05;;
60588;SDS011;46421;48.610;9.334;2024-02-21T13:23:16;2.85;;;0.95;;
60588;SDS011;46421;48.610;9.334;2024-02-21T13:25:41;4.15;;;1.10;;
60588;SDS011;46421;48.610;9.334;2024-02-21T13:28:07;3.72;;;0.93;;
60588;SDS011;46421;48.610;9.334;2024-02-21T13:30:34;3.72;;;0.90;;
60588;SDS011;46421;48.610;9.334;2024-02-21T13:33:00;3.50;;;1.10;;
60588;SDS011;46421;48.610;9.334;2024-02-21T13:35:25;3.20;;;1.20;;
60588;SDS011;46421;48.610;9.334;2024-02-21T13:37:50;3.95;;;1.10;;
60588;SDS011;46421;48.610;9.334;2024-02-21T13:40:16;3.25;;;0.90;;
60588;SDS011;46421;48.610;9.334;2024-02-21T13:42:41;5.20;;;1.20;;
60588;SDS011;46421;48.610;9.334;2024-02-21T13:45:08;3.40;;;1.05;;
60588;SDS011;46421;48.610;9.334;2024-02-21T13:47:34;2.83;;;1.42;;
60588;SDS011;46421;48.610;9.334;2024-02-21T13:50:01;2.67;;;1.20;;
60588;SDS011;46421;48.610;9.334;2024-02-21T13:52:29;3.65;;;1.10;;
60588;SDS011;46421;48.610;9.334;2024-02-21T13:54:55;4.15;;;1.10;;
60588;SDS011;46421;48.610;9.334;2024-02-21T13:57:20;3.90;;;1.38;;
60588;SDS011;46421;48.610;9.334;2024-02-21T13:59:46;5.03;;;1.35;;
60588;SDS011;46421;48.610;9.334;2024-02-21T14:02:11;4.07;;;1.48;;
60588;SDS011;46421;48.610;9.334;2024-02-21T14:04:37;4.63;;;1.10;;
60588;SDS011;46421;48.610;9.334;2024-02-21T14:07:02;3.30;;;1.10;;
60588;SDS011;46421;48.610;9.334;2024-02-21T14:09:28;5.47;;;1.25;;
60588;SDS011;46421;48.610;9.334;2024-02-21T14:11:58;3.13;;;1.02;;
60588;SDS011;46421;48.610;9.334;2024-02-21T14:14:23;3.42;;;1.10;;
60588;SDS011;46421;48.610;9.334;2024-02-21T14:16:48;3.10;;;0.88;;
60588;SDS011;46421;48.610;9.334;2024-02-21T14:19:14;3.63;;;1.30;;
60588;SDS011;46421;48.610;9.334;2024-02-21T14:21:40;3.88;;;0.95;;
60588;SDS011;46421;48.610;9.334;2024-02-21T14:24:05;3.55;;;1.23;;
60588;SDS011;46421;48.610;9.334;2024-02-21T14:26:31;3.50;;;1.17;;
60588;SDS011;46421;48.610;9.334;2024-02-21T14:28:57;4.53;;;1.45;;
60588;SDS011;46421;48.610;9.334;2024-02-21T14:31:22;3.50;;;1.10;;
60588;SDS011;46421;48.610;9.334;2024-02-21T14:33:48;2.67;;;1.02;;
60588;SDS011;46421;48.610;9.334;2024-02-21T14:36:13;3.53;;;1.15;;
60588;SDS011;46421;48.610;9.334;2024-02-21T14:38:40;1.75;;;0.80;;
60588;SDS011;46421;48.610;9.334;2024-02-21T14:41:06;2.95;;;1.10;;
60588;SDS011;46421;48.610;9.334;2024-02-21T14:43:32;2.53;;;0.82;;
60588;SDS011;46421;48.610;9.334;2024-02-21T14:45:57;4.38;;;1.33;;
60588;SDS011;46421;48.610;9.334;2024-02-21T14:48:22;4.60;;;1.17;;
60588;SDS011;46421;48.610;9.334;2024-02-21T14:50:48;2.40;;;0.90;;
60588;SDS011;46421;48.610;9.334;2024-02-21T14:53:14;2.60;;;0.85;;
60588;SDS011;46421;48.610;9.334;2024-02-21T14:55:40;3.38;;;1.20;;
60588;SDS011;46421;48.610;9.334;2024-02-21T14:58:06;2.55;;;1.00;;